createdAt,value
2022-10-02T00:00:49.834Z,4.3
2022-10-02T00:02:49.871Z,3.8
2022-10-02T00:04:50.131Z,3.8
2022-10-02T00:06:50.507Z,3.9
2022-10-02T00:08:50.271Z,5.8
2022-10-02T00:10:50.394Z,4.6
2022-10-02T00:12:50.209Z,5.7
2022-10-02T00:14:50.379Z,5.7
2022-10-02T00:16:49.784Z,7.4
2022-10-02T00:18:50.045Z,6.1
2022-10-02T00:20:50.150Z,6.1
2022-10-02T00:22:49.899Z,4.8
2022-10-02T00:24:50.202Z,4.8
2022-10-02T00:26:49.637Z,6.7
2022-10-02T00:28:49.726Z,6.1
2022-10-02T00:30:49.880Z,5.7
2022-10-02T00:32:49.901Z,12.3
2022-10-02T00:34:50.368Z,12.3
2022-10-02T00:36:49.643Z,6.3
2022-10-02T00:38:49.754Z,4.3
2022-10-02T00:40:49.756Z,5.4
2022-10-02T00:42:50.511Z,5.4
2022-10-02T00:44:49.628Z,6.8
2022-10-02T00:46:49.794Z,5.5
2022-10-02T00:48:49.718Z,5.5
2022-10-02T00:50:49.720Z,7.0
2022-10-02T00:52:49.757Z,7.0
2022-10-02T00:54:49.784Z,6.6
2022-10-02T00:56:49.972Z,6.0
2022-10-02T00:58:50.016Z,6.9
2022-10-02T01:00:50.116Z,7.3
2022-10-02T01:02:50.523Z,7.3
2022-10-02T01:04:50.360Z,6.6
2022-10-02T01:06:49.631Z,6.0
2022-10-02T01:08:49.698Z,7.4
2022-10-02T01:10:49.584Z,4.6
2022-10-02T01:12:49.670Z,4.6
2022-10-02T01:14:49.579Z,5.4
2022-10-02T01:16:49.870Z,4.5
2022-10-02T01:18:50.111Z,4.5
2022-10-02T01:20:49.918Z,5.8
2022-10-02T01:22:49.985Z,5.8
2022-10-02T01:24:49.824Z,8.0
2022-10-02T01:26:50.210Z,7.8
2022-10-02T01:28:50.119Z,6.3
2022-10-02T01:30:50.242Z,7.9
2022-10-02T01:32:50.076Z,7.9
2022-10-02T01:34:49.617Z,8.2
2022-10-02T01:36:50.063Z,8.9
2022-10-02T01:38:49.933Z,8.9
2022-10-02T01:40:49.991Z,3.9
2022-10-02T01:42:49.767Z,5.9
2022-10-02T01:44:49.880Z,6.7
2022-10-02T01:46:50.011Z,7.6
2022-10-02T01:48:50.196Z,9.2
2022-10-02T01:50:50.180Z,9.2
2022-10-02T01:52:50.008Z,7.9
2022-10-02T01:54:50.073Z,7.4
2022-10-02T01:56:50.334Z,6.1
2022-10-02T01:58:50.364Z,8.3
2022-10-02T02:00:50.227Z,8.3
2022-10-02T02:02:50.541Z,6.7
2022-10-02T02:04:49.911Z,6.7
2022-10-02T02:06:50.116Z,8.3
2022-10-02T02:08:50.304Z,7.2
2022-10-02T02:10:50.138Z,7.2
2022-10-02T02:12:50.219Z,7.2
2022-10-02T02:14:50.180Z,7.4
2022-10-02T02:16:49.708Z,7.4
2022-10-02T02:18:49.891Z,8.9
2022-10-02T02:20:50.070Z,7.3
2022-10-02T02:22:50.031Z,6.2
2022-10-02T02:24:50.128Z,7.3
2022-10-02T02:26:49.556Z,8.4
2022-10-02T02:28:50.252Z,8.4
2022-10-02T02:30:50.205Z,7.8
2022-10-02T02:32:49.967Z,7.8
2022-10-02T02:34:50.454Z,10.9
2022-10-02T02:36:49.736Z,7.3
2022-10-02T02:38:49.812Z,7.3
2022-10-02T02:40:49.740Z,9.3
2022-10-02T02:42:49.618Z,7.8
2022-10-02T02:44:49.642Z,6.8
2022-10-02T02:46:49.960Z,7.1
2022-10-02T02:48:50.021Z,7.1
2022-10-02T02:50:49.845Z,6.6
2022-10-02T02:52:49.907Z,8.2
2022-10-02T02:54:49.763Z,8.2
2022-10-02T02:56:50.131Z,7.2
2022-10-02T02:58:50.286Z,7.2
2022-10-02T03:00:49.646Z,9.9
2022-10-02T03:02:49.835Z,6.8
2022-10-02T03:04:50.340Z,6.2
2022-10-02T03:06:49.675Z,9.3
2022-10-02T03:08:49.726Z,9.3
2022-10-02T03:10:49.633Z,7.7
2022-10-02T03:12:50.516Z,8.2
2022-10-02T03:14:49.674Z,11.2
2022-10-02T03:16:50.020Z,8.3
2022-10-02T03:18:50.075Z,8.3
2022-10-02T03:20:50.014Z,7.8
2022-10-02T03:22:50.140Z,9.5
2022-10-02T03:24:50.127Z,6.5
2022-10-02T03:26:50.537Z,10.4
2022-10-02T03:28:55.813Z,10.4
2022-10-02T03:30:50.393Z,8.1
2022-10-02T03:32:50.472Z,9.4
2022-10-02T03:34:49.789Z,9.2
2022-10-02T03:36:49.984Z,9.2
2022-10-02T03:38:56.964Z,6.1
2022-10-02T03:40:49.987Z,10.2
2022-10-02T03:42:49.934Z,7.5
2022-10-02T03:44:50.010Z,7.5
2022-10-02T03:46:50.302Z,8.8
2022-10-02T03:48:49.834Z,8.6
2022-10-02T03:50:49.942Z,10.0
2022-10-02T03:52:49.882Z,7.3
2022-10-02T03:54:49.993Z,7.3
2022-10-02T03:56:50.287Z,9.2
2022-10-02T03:58:50.360Z,9.9
2022-10-02T04:00:50.318Z,8.8
2022-10-02T04:02:50.254Z,11.5
2022-10-02T04:04:50.024Z,11.5
2022-10-02T04:06:50.369Z,8.8
2022-10-02T04:08:50.323Z,9.3
2022-10-02T04:10:50.259Z,11.4
2022-10-02T04:12:50.452Z,9.5
2022-10-02T04:14:50.275Z,9.5
2022-10-02T04:16:50.524Z,8.8
2022-10-02T04:18:50.373Z,8.6
2022-10-02T04:20:50.502Z,7.6
2022-10-02T04:22:49.575Z,5.9
2022-10-02T04:24:50.493Z,5.9
2022-10-02T04:26:49.910Z,8.3
2022-10-02T04:28:49.890Z,7.9
2022-10-02T04:30:49.811Z,5.6
2022-10-02T04:32:49.651Z,5.1
2022-10-02T04:34:50.205Z,5.1
2022-10-02T04:36:50.373Z,8.8
2022-10-02T04:38:50.381Z,6.3
2022-10-02T04:40:50.480Z,8.4
2022-10-02T04:42:50.453Z,8.4
2022-10-02T04:44:49.571Z,4.2
2022-10-02T04:46:49.640Z,5.9
2022-10-02T04:48:49.757Z,5.7
2022-10-02T04:50:50.546Z,7.8
2022-10-02T04:52:50.387Z,7.8
2022-10-02T04:54:50.240Z,5.7
2022-10-02T04:56:49.626Z,8.7
2022-10-02T04:58:49.629Z,5.7
2022-10-02T05:00:49.744Z,6.2
2022-10-02T05:02:50.224Z,5.1
2022-10-02T05:04:49.997Z,5.1
2022-10-02T05:06:50.357Z,6.1
2022-10-02T05:08:50.229Z,6.1
2022-10-02T05:10:50.289Z,7.8
2022-10-02T05:12:50.267Z,7.8
2022-10-02T05:14:50.228Z,9.7
2022-10-02T05:16:49.731Z,4.7
2022-10-02T05:18:49.619Z,4.4
2022-10-02T05:20:49.758Z,4.4
2022-10-02T05:22:49.625Z,4.2
2022-10-02T05:24:49.904Z,5.2
2022-10-02T05:26:50.236Z,2.9
2022-10-02T05:28:50.327Z,3.8
2022-10-02T05:30:50.193Z,6.6
2022-10-02T05:32:50.279Z,6.6
2022-10-02T05:34:49.747Z,9.2
2022-10-02T05:36:50.072Z,5.5
2022-10-02T05:38:50.250Z,5.6
2022-10-02T05:40:50.134Z,5.9
2022-10-02T05:42:50.108Z,5.9
2022-10-02T05:44:49.813Z,8.8
2022-10-02T05:46:50.228Z,8.8
2022-10-02T05:48:50.414Z,6.2
2022-10-02T05:50:50.452Z,6.2
2022-10-02T05:52:50.410Z,8.5
2022-10-02T05:54:50.292Z,7.0
2022-10-02T05:56:49.625Z,4.4
2022-10-02T05:58:50.560Z,5.8
2022-10-02T06:00:49.744Z,5.8
2022-10-02T06:02:49.835Z,6.7
2022-10-02T06:04:50.304Z,4.9
2022-10-02T06:06:49.587Z,6.1
2022-10-02T06:08:49.600Z,6.1
2022-10-02T06:10:50.382Z,5.7
2022-10-02T06:12:50.371Z,5.2
2022-10-02T06:14:50.861Z,7.2
2022-10-02T06:16:50.230Z,4.6
2022-10-02T06:18:49.730Z,5.5
2022-10-02T06:20:49.706Z,5.5
2022-10-02T06:22:49.840Z,7.2
2022-10-02T06:24:49.883Z,7.3
2022-10-02T06:26:50.123Z,5.8
2022-10-02T06:28:50.122Z,4.4
2022-10-02T06:30:50.104Z,4.4
2022-10-02T06:32:50.174Z,5.6
2022-10-02T06:34:49.782Z,5.7
2022-10-02T06:36:50.144Z,5.7
2022-10-02T06:38:50.073Z,5.5
2022-10-02T06:40:50.167Z,5.7
2022-10-02T06:42:50.222Z,4.5
2022-10-02T06:44:50.223Z,6.4
2022-10-02T06:46:51.445Z,9.1
2022-10-02T06:48:49.557Z,9.1
2022-10-02T06:50:49.683Z,7.1
2022-10-02T06:52:49.718Z,4.8
2022-10-02T06:54:49.680Z,6.5
2022-10-02T06:56:50.031Z,6.4
2022-10-02T06:58:49.998Z,6.4
2022-10-02T07:00:50.055Z,7.3
2022-10-02T07:02:50.360Z,6.2
2022-10-02T07:04:49.969Z,6.2
2022-10-02T07:06:50.327Z,9.2
2022-10-02T07:08:50.233Z,9.2
2022-10-02T07:10:50.396Z,5.9
2022-10-02T07:12:50.502Z,4.4
2022-10-02T07:14:49.753Z,7.2
2022-10-02T07:16:50.265Z,9.3
2022-10-02T07:18:50.438Z,9.3
2022-10-02T07:20:50.460Z,9.0
2022-10-02T07:22:50.463Z,5.4
2022-10-02T07:24:49.680Z,5.6
2022-10-02T07:26:49.916Z,6.3
2022-10-02T07:28:50.071Z,6.3
2022-10-02T07:30:50.073Z,4.4
2022-10-02T07:32:50.155Z,5.4
2022-10-02T07:34:49.828Z,6.5
2022-10-02T07:36:50.183Z,6.3
2022-10-02T07:38:50.208Z,6.3
2022-10-02T07:40:50.099Z,5.7
2022-10-02T07:42:50.101Z,6.6
2022-10-02T07:44:49.878Z,6.4
2022-10-02T07:46:50.161Z,6.4
2022-10-02T07:48:50.201Z,5.1
2022-10-02T07:50:50.124Z,5.3
2022-10-02T07:52:50.293Z,5.3
2022-10-02T07:54:50.425Z,6.6
2022-10-02T07:56:50.014Z,6.6
2022-10-02T07:58:50.262Z,3.7
2022-10-02T08:00:50.323Z,3.6
2022-10-02T08:02:49.580Z,3.6
2022-10-02T08:04:50.467Z,3.5
2022-10-02T08:06:49.985Z,3.5
2022-10-02T08:08:50.040Z,2.6
2022-10-02T08:10:50.279Z,4.4
2022-10-02T08:12:50.236Z,4.4
2022-10-02T08:14:50.239Z,3.3
2022-10-02T08:16:49.719Z,3.3
2022-10-02T08:18:49.969Z,3.3
2022-10-02T08:20:50.097Z,5.4
2022-10-02T08:22:50.018Z,5.3
2022-10-02T08:24:50.225Z,3.7
2022-10-02T08:26:50.346Z,3.7
2022-10-02T08:28:50.376Z,5.2
2022-10-02T08:30:50.564Z,4.3
2022-10-02T08:32:49.574Z,4.7
2022-10-02T08:34:49.973Z,3.8
2022-10-02T08:36:50.337Z,3.8
2022-10-02T08:38:53.939Z,3.9
2022-10-02T08:40:50.140Z,3.8
2022-10-02T08:42:50.050Z,4.1
2022-10-02T08:44:50.032Z,4.1
2022-10-02T08:46:50.325Z,4.3
2022-10-02T08:48:50.337Z,4.1
2022-10-02T08:50:49.723Z,5.4
2022-10-02T08:52:50.007Z,5.4
2022-10-02T08:54:50.100Z,5.1
2022-10-02T08:56:49.544Z,7.8
2022-10-02T08:58:50.515Z,4.5
2022-10-02T09:00:50.449Z,7.3
2022-10-02T09:02:49.703Z,4.7
2022-10-02T09:04:50.179Z,4.7
2022-10-02T09:06:49.561Z,5.8
2022-10-02T09:08:50.558Z,5.8
2022-10-02T09:10:50.537Z,6.0
2022-10-02T09:12:50.479Z,4.7
2022-10-02T09:14:49.586Z,4.7
2022-10-02T09:16:49.838Z,4.0
2022-10-02T09:18:50.373Z,5.7
2022-10-02T09:20:50.426Z,4.5
2022-10-02T09:22:50.440Z,4.5
2022-10-02T09:24:50.538Z,4.1
2022-10-02T09:26:49.940Z,5.7
2022-10-02T09:28:50.203Z,4.1
2022-10-02T09:30:49.865Z,4.9
2022-10-02T09:32:49.708Z,4.9
2022-10-02T09:34:50.448Z,5.6
2022-10-02T09:36:50.076Z,5.8
2022-10-02T09:38:50.444Z,4.5
2022-10-02T09:40:50.531Z,5.0
2022-10-02T09:42:49.631Z,5.0
2022-10-02T09:44:49.786Z,5.4
2022-10-02T09:46:49.991Z,5.3
2022-10-02T09:48:49.821Z,7.9
2022-10-02T09:50:49.717Z,4.1
2022-10-02T09:52:49.745Z,4.1
2022-10-02T09:54:50.427Z,5.3
2022-10-02T09:56:49.942Z,4.3
2022-10-02T09:58:50.172Z,5.8
2022-10-02T10:00:50.193Z,5.8
2022-10-02T10:02:49.611Z,5.2
2022-10-02T10:05:05.377Z,5.2
2022-10-02T10:06:49.685Z,5.8
2022-10-02T10:08:49.585Z,5.4
2022-10-02T10:10:49.773Z,5.4
2022-10-02T10:12:49.778Z,6.3
2022-10-02T10:14:49.751Z,7.3
2022-10-02T10:16:49.979Z,6.0
2022-10-02T10:18:49.570Z,4.3
2022-10-02T10:20:49.835Z,4.3
2022-10-02T10:22:49.618Z,4.2
2022-10-02T10:24:49.729Z,5.0
2022-10-02T10:26:50.023Z,4.5
2022-10-02T10:28:50.116Z,7.1
2022-10-02T10:30:50.112Z,7.1
2022-10-02T10:32:49.879Z,5.2
2022-10-02T10:34:50.136Z,5.0
2022-10-02T10:36:50.503Z,3.6
2022-10-02T10:38:49.760Z,3.6
2022-10-02T10:40:49.840Z,3.6
2022-10-02T10:43:06.232Z,2.9
2022-10-02T10:44:50.113Z,3.6
2022-10-02T10:46:50.299Z,3.9
2022-10-02T10:48:49.886Z,3.9
2022-10-02T10:50:49.911Z,3.8
2022-10-02T10:52:50.073Z,5.5
2022-10-02T10:54:50.258Z,4.4
2022-10-02T10:56:50.017Z,5.5
2022-10-02T10:58:50.284Z,5.5
2022-10-02T11:00:50.359Z,4.0
2022-10-02T11:02:49.726Z,3.8
2022-10-02T11:04:50.462Z,6.5
2022-10-02T11:06:50.038Z,4.5
2022-10-02T11:08:50.162Z,4.5
2022-10-02T11:10:50.150Z,3.5
2022-10-02T11:12:50.231Z,4.4
2022-10-02T11:14:50.430Z,4.6
2022-10-02T11:16:49.741Z,5.3
2022-10-02T11:18:50.239Z,5.3
2022-10-02T11:20:50.286Z,4.2
2022-10-02T11:22:49.795Z,4.1
2022-10-02T11:24:49.979Z,4.9
2022-10-02T11:26:50.440Z,7.9
2022-10-02T11:28:49.582Z,7.9
2022-10-02T11:30:50.475Z,4.4
2022-10-02T11:32:49.671Z,3.8
2022-10-02T11:34:50.106Z,5.1
2022-10-02T11:36:50.403Z,5.2
2022-10-02T11:38:49.636Z,5.2
2022-10-02T11:40:49.836Z,4.2
2022-10-02T11:42:50.114Z,5.1
2022-10-02T11:44:50.351Z,5.9
2022-10-02T11:46:49.672Z,5.9
2022-10-02T11:48:49.911Z,4.5
2022-10-02T11:50:49.941Z,5.8
2022-10-02T11:52:49.981Z,4.7
2022-10-02T11:54:50.185Z,4.7
2022-10-02T11:56:49.625Z,5.4
2022-10-02T11:58:49.758Z,5.4
2022-10-02T12:00:49.625Z,3.7
2022-10-02T12:02:49.666Z,6.9
2022-10-02T12:04:49.656Z,4.6
2022-10-02T12:06:50.140Z,4.6
2022-10-02T12:08:50.275Z,3.9
2022-10-02T12:10:50.113Z,4.4
2022-10-02T12:12:50.210Z,4.7
2022-10-02T12:14:50.185Z,4.9
2022-10-02T12:16:49.674Z,4.9
2022-10-02T12:18:50.198Z,3.6
2022-10-02T12:20:50.056Z,3.4
2022-10-02T12:22:50.238Z,4.6
2022-10-02T12:24:54.081Z,4.3
2022-10-02T12:26:50.265Z,4.3
2022-10-02T12:28:50.391Z,3.0
2022-10-02T12:30:50.451Z,2.6
2022-10-02T12:32:50.399Z,2.8
2022-10-02T12:34:49.977Z,2.8
2022-10-02T12:36:50.388Z,2.1
2022-10-02T12:38:50.531Z,2.5
2022-10-02T12:40:49.749Z,2.2
2022-10-02T12:42:49.743Z,2.4
2022-10-02T12:44:50.003Z,2.4
2022-10-02T12:46:50.268Z,2.5
2022-10-02T12:48:50.337Z,2.7
2022-10-02T12:50:50.360Z,2.8
2022-10-02T12:52:50.219Z,2.8
2022-10-02T12:54:50.327Z,2.6
2022-10-02T12:56:50.035Z,4.4
2022-10-02T12:58:50.063Z,2.6
2022-10-02T13:00:50.153Z,2.2
2022-10-02T13:03:00.660Z,2.2
2022-10-02T13:04:50.138Z,2.1
2022-10-02T13:06:50.070Z,2.1
2022-10-02T13:08:49.958Z,2.4
2022-10-02T13:10:50.104Z,1.6
2022-10-02T13:12:49.918Z,1.6
2022-10-02T13:14:49.804Z,1.6
2022-10-02T13:16:50.081Z,1.9
2022-10-02T13:18:50.183Z,1.6
2022-10-02T13:20:50.271Z,1.6
2022-10-02T13:22:50.283Z,1.6
2022-10-02T13:24:49.594Z,1.6
2022-10-02T13:26:49.795Z,1.4
2022-10-02T13:28:49.752Z,1.3
2022-10-02T13:30:49.834Z,1.5
2022-10-02T13:32:49.626Z,1.5
2022-10-02T13:34:50.112Z,1.6
2022-10-02T13:36:50.393Z,1.1
2022-10-02T13:38:50.330Z,1.3
2022-10-02T13:40:50.489Z,1.1
2022-10-02T13:42:50.385Z,1.1
2022-10-02T13:44:50.493Z,1.5
2022-10-02T13:46:49.658Z,1.3
2022-10-02T13:48:49.703Z,2.2
2022-10-02T13:50:49.823Z,2.2
2022-10-02T13:52:49.628Z,1.7
2022-10-02T13:54:49.783Z,1.5
2022-10-02T13:56:50.169Z,1.5
2022-10-02T13:58:50.096Z,1.2
2022-10-02T14:00:50.163Z,1.2
2022-10-02T14:02:50.318Z,1.2
2022-10-02T14:04:49.682Z,1.2
2022-10-02T14:06:50.212Z,1.4
2022-10-02T14:08:50.239Z,1.4
2022-10-02T14:10:50.338Z,1.4
2022-10-02T14:12:50.295Z,1.7
2022-10-02T14:14:50.297Z,1.2
2022-10-02T14:16:49.825Z,1.2
2022-10-02T14:18:50.369Z,1.2
2022-10-02T14:20:50.432Z,1.6
2022-10-02T14:22:50.392Z,1.2
2022-10-02T14:24:50.568Z,1.3
2022-10-02T14:26:49.862Z,1.3
2022-10-02T14:28:49.785Z,1.2
2022-10-02T14:30:49.925Z,1.2
2022-10-02T14:32:49.963Z,1.0
2022-10-02T14:34:50.351Z,1.1
2022-10-02T14:36:49.700Z,1.1
2022-10-02T14:38:50.491Z,1.8
2022-10-02T14:40:49.594Z,1.8
2022-10-02T14:42:50.440Z,1.9
2022-10-02T14:44:49.578Z,1.4
2022-10-02T14:46:49.836Z,1.4
2022-10-02T14:48:49.706Z,1.2
2022-10-02T14:50:49.807Z,1.2
2022-10-02T14:52:49.631Z,1.3
2022-10-02T14:54:49.666Z,1.4
2022-10-02T14:56:50.084Z,1.4
2022-10-02T14:58:50.035Z,1.5
2022-10-02T15:00:49.884Z,1.5
2022-10-02T15:02:50.241Z,1.5
2022-10-02T15:04:49.827Z,1.6
2022-10-02T15:06:50.160Z,1.5
2022-10-02T15:08:50.200Z,1.2
2022-10-02T15:10:50.393Z,1.2
2022-10-02T15:12:50.123Z,1.4
2022-10-02T15:14:50.189Z,2.4
2022-10-02T15:16:50.524Z,1.3
2022-10-02T15:18:49.732Z,1.3
2022-10-02T15:20:49.604Z,1.4
2022-10-02T15:22:49.549Z,1.2
2022-10-02T15:24:50.516Z,1.3
2022-10-02T15:26:49.790Z,1.3
2022-10-02T15:28:49.884Z,1.3
2022-10-02T15:30:50.117Z,1.4
2022-10-02T15:32:50.161Z,1.7
2022-10-02T15:34:49.684Z,1.6
2022-10-02T15:36:49.915Z,1.3
2022-10-02T15:38:50.084Z,1.3
2022-10-02T15:40:50.122Z,1.5
2022-10-02T15:42:50.838Z,1.4
2022-10-02T15:44:49.592Z,1.6
2022-10-02T15:46:49.892Z,1.4
2022-10-02T15:48:52.459Z,1.4
2022-10-02T15:50:49.595Z,1.4
2022-10-02T15:52:50.481Z,1.6
2022-10-02T15:54:50.331Z,1.7
2022-10-02T15:56:50.456Z,1.6
2022-10-02T15:58:49.651Z,1.6
2022-10-02T16:00:49.580Z,1.6
2022-10-02T16:02:49.906Z,1.7
2022-10-02T16:04:50.188Z,1.6
2022-10-02T16:06:49.746Z,1.6
2022-10-02T16:08:49.990Z,1.4
2022-10-02T16:10:49.816Z,1.4
2022-10-02T16:12:50.128Z,1.9
2022-10-02T16:14:50.228Z,2.0
2022-10-02T16:16:50.403Z,2.0
2022-10-02T16:18:49.748Z,2.1
2022-10-02T16:20:49.824Z,1.9
2022-10-02T16:22:49.746Z,1.6
2022-10-02T16:24:49.985Z,1.6
2022-10-02T16:26:50.279Z,2.5
2022-10-02T16:28:50.263Z,2.0
2022-10-02T16:30:50.363Z,2.0
2022-10-02T16:32:50.258Z,2.0
2022-10-02T16:34:49.687Z,2.0
2022-10-02T16:36:49.805Z,3.2
2022-10-02T16:38:49.607Z,2.3
2022-10-02T16:40:49.640Z,2.2
2022-10-02T16:42:50.404Z,2.1
2022-10-02T16:44:50.454Z,2.1
2022-10-02T16:46:50.422Z,2.1
2022-10-02T16:48:49.614Z,2.2
2022-10-02T16:50:49.638Z,1.9
2022-10-02T16:52:49.645Z,2.4
2022-10-02T16:54:49.689Z,2.4
2022-10-02T16:56:50.006Z,2.8
2022-10-02T16:58:50.031Z,2.8
2022-10-02T17:00:50.033Z,3.6
2022-10-02T17:02:50.512Z,3.6
2022-10-02T17:04:50.159Z,2.9
2022-10-02T17:06:50.439Z,2.8
2022-10-02T17:08:50.464Z,2.9
2022-10-02T17:10:50.326Z,2.7
2022-10-02T17:12:50.514Z,2.7
2022-10-02T17:14:50.355Z,2.7
2022-10-02T17:16:49.779Z,2.8
2022-10-02T17:18:50.001Z,3.7
2022-10-02T17:20:50.229Z,2.7
2022-10-02T17:22:50.336Z,2.7
2022-10-02T17:24:50.224Z,2.4
2022-10-02T17:26:49.686Z,2.5
2022-10-02T17:28:50.532Z,2.1
2022-10-02T17:30:50.540Z,2.1
2022-10-02T17:32:50.342Z,2.3
2022-10-02T17:34:49.795Z,2.2
2022-10-02T17:36:50.231Z,2.2
2022-10-02T17:38:50.187Z,2.2
2022-10-02T17:40:50.211Z,2.3
2022-10-02T17:42:50.041Z,2.3
2022-10-02T17:44:49.833Z,2.3
2022-10-02T17:46:50.122Z,2.7
2022-10-02T17:48:50.054Z,2.8
2022-10-02T17:50:50.023Z,2.6
2022-10-02T17:52:49.980Z,2.6
2022-10-02T17:54:49.803Z,2.9
2022-10-02T17:56:50.099Z,3.0
2022-10-02T17:58:49.939Z,3.0
2022-10-02T18:00:49.986Z,3.1
2022-10-02T18:02:50.306Z,3.1
2022-10-02T18:04:49.904Z,3.3
2022-10-02T18:06:50.222Z,3.5
2022-10-02T18:08:50.206Z,3.2
2022-10-02T18:10:50.186Z,3.2
2022-10-02T18:12:50.285Z,3.4
2022-10-02T18:14:50.327Z,4.1
2022-10-02T18:16:49.787Z,3.4
2022-10-02T18:18:50.009Z,3.4
2022-10-02T18:20:50.126Z,3.4
2022-10-02T18:22:50.175Z,3.5
2022-10-02T18:24:50.019Z,3.5
2022-10-02T18:26:50.225Z,4.0
2022-10-02T18:28:50.190Z,3.9
2022-10-02T18:30:50.091Z,3.9
2022-10-02T18:32:50.087Z,3.8
2022-10-02T18:34:50.482Z,4.0
2022-10-02T18:36:49.837Z,4.0
2022-10-02T18:38:49.814Z,4.0
2022-10-02T18:40:49.908Z,3.7
2022-10-02T18:42:49.933Z,3.7
2022-10-02T18:44:49.954Z,3.3
2022-10-02T18:46:50.139Z,3.3
2022-10-02T18:48:50.242Z,3.8
2022-10-02T18:50:50.164Z,3.8
2022-10-02T18:52:50.053Z,3.8
2022-10-02T18:54:50.192Z,4.2
2022-10-02T18:56:50.326Z,3.9
2022-10-02T18:58:50.435Z,4.6
2022-10-02T19:00:50.555Z,4.6
2022-10-02T19:02:49.699Z,4.6
2022-10-02T19:04:50.117Z,6.3
2022-10-02T19:06:50.432Z,4.8
2022-10-02T19:08:50.483Z,4.8
2022-10-02T19:10:50.443Z,5.1
2022-10-02T19:12:50.497Z,7.4
2022-10-02T19:14:50.527Z,5.2
2022-10-02T19:16:49.643Z,5.8
2022-10-02T19:18:50.197Z,5.8
2022-10-02T19:20:50.030Z,5.6
2022-10-02T19:22:50.062Z,5.6
2022-10-02T19:24:50.167Z,6.7
2022-10-02T19:26:50.478Z,5.9
2022-10-02T19:28:49.562Z,5.9
2022-10-02T19:30:50.502Z,6.6
2022-10-02T19:32:49.699Z,6.7
2022-10-02T19:34:50.289Z,6.6
2022-10-02T19:36:49.575Z,6.9
2022-10-02T19:38:50.501Z,6.9
2022-10-02T19:40:50.525Z,6.8
2022-10-02T19:42:49.615Z,7.0
2022-10-02T19:44:49.563Z,7.3
2022-10-02T19:46:49.914Z,6.9
2022-10-02T19:48:49.984Z,6.9
2022-10-02T19:50:50.059Z,7.4
2022-10-02T19:52:49.955Z,7.3
2022-10-02T19:54:49.870Z,7.7
2022-10-02T19:56:49.995Z,7.9
2022-10-02T19:58:50.001Z,7.9
2022-10-02T20:00:50.063Z,8.2
2022-10-02T20:02:50.507Z,7.7
2022-10-02T20:04:49.768Z,8.3
2022-10-02T20:06:50.047Z,8.3
2022-10-02T20:08:50.184Z,9.8
2022-10-02T20:10:50.223Z,9.3
2022-10-02T20:12:49.994Z,8.8
2022-10-02T20:14:49.982Z,10.0
2022-10-02T20:16:50.368Z,10.0
2022-10-02T20:18:49.942Z,10.3
2022-10-02T20:20:49.842Z,11.1
2022-10-02T20:22:49.836Z,10.5
2022-10-02T20:24:49.809Z,11.5
2022-10-02T20:26:50.086Z,11.5
2022-10-02T20:28:50.162Z,10.6
2022-10-02T20:30:50.130Z,12.3
2022-10-02T20:32:50.209Z,12.3
2022-10-02T20:34:49.952Z,11.1
2022-10-02T20:36:50.282Z,11.3
2022-10-02T20:38:50.106Z,12.0
2022-10-02T20:40:50.378Z,11.7
2022-10-02T20:42:50.234Z,11.5
2022-10-02T20:44:50.341Z,11.5
2022-10-02T20:46:50.428Z,11.4
2022-10-02T20:49:07.357Z,11.2
2022-10-02T20:50:50.446Z,10.4
2022-10-02T20:52:50.390Z,13.0
2022-10-02T20:54:50.031Z,13.3
2022-10-02T20:56:50.317Z,13.3
2022-10-02T20:58:50.295Z,13.8
2022-10-02T21:00:49.588Z,12.4
2022-10-02T21:02:49.797Z,12.0
2022-10-02T21:04:50.187Z,12.0
2022-10-02T21:06:49.585Z,14.5
2022-10-02T21:08:50.349Z,13.1
2022-10-02T21:10:50.428Z,13.7
2022-10-02T21:12:50.236Z,14.0
2022-10-02T21:14:50.018Z,14.0
2022-10-02T21:16:50.465Z,16.8
2022-10-02T21:18:49.740Z,16.8
2022-10-02T21:20:51.510Z,13.8
2022-10-02T21:22:50.021Z,13.8
2022-10-02T21:24:50.096Z,16.9
2022-10-02T21:26:50.163Z,17.1
2022-10-02T21:28:50.001Z,17.3
2022-10-02T21:30:50.092Z,17.8
2022-10-02T21:32:50.482Z,17.8
2022-10-02T21:34:49.882Z,18.2
2022-10-02T21:36:50.159Z,16.8
2022-10-02T21:38:50.110Z,19.5
2022-10-02T21:40:50.117Z,21.4
2022-10-02T21:42:49.829Z,21.4
2022-10-02T21:44:50.019Z,16.1
2022-10-02T21:46:50.312Z,20.1
2022-10-02T21:48:50.139Z,18.0
2022-10-02T21:50:50.235Z,25.9
2022-10-02T21:52:50.311Z,25.9
2022-10-02T21:54:50.391Z,20.2
2022-10-02T21:56:52.329Z,22.7
2022-10-02T21:58:50.329Z,20.7
2022-10-02T22:00:50.418Z,20.6
2022-10-02T22:02:49.957Z,20.6
2022-10-02T22:04:49.620Z,23.1
2022-10-02T22:06:53.829Z,24.6
2022-10-02T22:08:50.227Z,22.0
2022-10-02T22:10:50.376Z,21.1
2022-10-02T22:12:50.564Z,21.1
2022-10-02T22:14:49.761Z,25.0
2022-10-02T22:16:50.078Z,24.0
2022-10-02T22:18:50.151Z,25.8
2022-10-02T22:20:50.305Z,25.4
2022-10-02T22:22:50.085Z,25.4
2022-10-02T22:24:50.451Z,23.2
2022-10-02T22:26:49.935Z,23.2
2022-10-02T22:28:50.206Z,23.2
2022-10-02T22:30:50.277Z,23.2
2022-10-02T22:32:50.358Z,22.5
2022-10-02T22:34:49.665Z,27.6
2022-10-02T22:36:50.267Z,25.7
2022-10-02T22:38:50.205Z,24.9
2022-10-02T22:40:50.308Z,24.9
2022-10-02T22:42:50.541Z,25.6
2022-10-02T22:44:49.594Z,28.2
2022-10-02T22:46:50.239Z,26.5
2022-10-02T22:48:49.986Z,27.2
2022-10-02T22:50:50.062Z,27.2
2022-10-02T22:52:50.150Z,27.7
2022-10-02T22:54:50.187Z,27.9
2022-10-02T22:56:50.517Z,29.8
2022-10-02T22:58:50.475Z,29.8
2022-10-02T23:00:50.594Z,28.7
2022-10-02T23:02:49.750Z,29.5
2022-10-02T23:04:50.127Z,29.7
2022-10-02T23:06:50.539Z,29.7
2022-10-02T23:08:49.692Z,28.4
2022-10-02T23:10:50.452Z,28.4
2022-10-02T23:12:49.777Z,29.8
2022-10-02T23:14:49.666Z,29.2
2022-10-02T23:16:49.970Z,29.2
2022-10-02T23:18:50.004Z,29.2
2022-10-02T23:20:49.946Z,33.4
2022-10-02T23:22:49.987Z,31.6
2022-10-02T23:24:49.894Z,32.2
2022-10-02T23:26:50.362Z,36.4
2022-10-02T23:28:50.377Z,36.4
2022-10-02T23:30:49.632Z,36.1
2022-10-02T23:32:50.083Z,33.4
2022-10-02T23:34:49.742Z,33.4
2022-10-02T23:36:50.092Z,38.5
2022-10-02T23:38:50.190Z,38.5
2022-10-02T23:40:50.071Z,32.0
2022-10-02T23:42:50.157Z,32.7
2022-10-02T23:44:50.043Z,33.8
2022-10-02T23:46:49.609Z,38.9
2022-10-02T23:48:49.720Z,38.9
2022-10-02T23:50:49.665Z,35.6
2022-10-02T23:52:49.902Z,37.0
2022-10-02T23:54:49.907Z,41.9
2022-10-02T23:56:50.276Z,33.4
2022-10-02T23:58:50.353Z,33.4
